Estación Meteorológica Peña el Pijo (Robertgarden) [ 12/11/18 10:12:26 CET ]

Fecha Hora Presion(HPa) Temp (°C) Humedad % Rocio (°C) Viento ( m/s) Direccion Lluvia 1Hora(mm) Lluvia 24H(mm) LLuvia Total(mm)
2018-Apr-24 01:01:47 1009.700 13.9 56 5.3         203.05
2018-Apr-24 02:01:39 1009.500 13.0 60 5.4         203.05
2018-Apr-24 03:02:34 1007.700 12.6 60 5.0         203.05
2018-Apr-24 04:01:40 1007.700 12.5 57 4.2         203.05
2018-Apr-24 05:01:40 1007.700 12.5 51 2.6         203.05
2018-Apr-24 06:01:42 1007.300 10.5 58 2.5         203.05
2018-Apr-24 07:01:52 1007.600 9.4 64 2.9         203.05
2018-Apr-24 08:01:35 1007.800 8.9 67 3.1         203.05
2018-Apr-24 09:01:30 1007.800 10.3 67 4.4         203.05
2018-Apr-24 10:01:26 1008.000 13.9 56 5.2         203.05
2018-Apr-24 11:01:42 1008.100 19.4 35 3.4         203.05
2018-Apr-24 12:01:47 1008.500 21.3 29 2.5 2.8 E     203.05
2018-Apr-24 13:01:29 1008.500 22.1 32 4.6 5.0 SSE     203.05
2018-Apr-24 14:01:40 1008.300 20.6 35 4.5 3.7 SW     203.05
2018-Apr-24 15:01:23 1007.700 23.3 31 5.2 0.7 SE     203.05
2018-Apr-24 16:01:25 1007.200 23.6 32 5.9         203.05
2018-Apr-24 17:01:56 1006.500 23.3 32 5.6 7.3 SSW     203.05
2018-Apr-24 18:01:53 1006.700 22.4 35 6.1 3.6 S     203.05
2018-Apr-24 19:01:49 1007.100 20.4 38 5.5         203.05
2018-Apr-24 20:01:42 1007.600 18.5 41 5.0 0.7 S     203.05
2018-Apr-24 21:01:42 1007.600 16.3 44 3.9         203.05
2018-Apr-24 22:01:54 1008.100 13.9 50 3.7         203.05
2018-Apr-24 23:01:48 1008.600 11.8 57 3.5         203.05

Temperatura Máxima:23°    Temperatura Mínima:
Presión Máxima:1009.700 Hpa    Presión Mínima:1006.500 Hpa


Volver